Terminal Aerodrome Forecast
Issued by NWS

Home | Current Version | Previous Version | Text Only | Print | Product List | Glossary On
Versions: 1 2 3 4 5 6 7 8 9 10 11 12 13 14 15 16 17 18 19 20 21 22 23 24 25 26 27 28 29 30 31 32 33 34 35 36
000
FTAK31 PAFA 291120
TAFAQT
TAF
PAQT 291120Z 2912/3012 35005KT P6SM OVC007
     FM291400 34006KT 2SM BR OVC005
     FM291800 36005KT P6SM BKN008 OVC015
     FM292100 36005KT P6SM BKN015 OVC025
     FM301000 09005KT 2SM BR OVC005=

USA.gov is the U.S. government's official web portal to all federal, state and local government web resources and services.